Time;durP1;ratioP1;P1;durP2;ratioP2;P2;SDS_P1;SDS_P2;PMS_P1;PMS_P2;Temp;Humidity;BMP_temperature;BMP_pressure;BME280_temperature;BME280_humidity;BME280_pressure;Samples;Min_cycle;Max_cycle;Signal;HPM_P1;HPM_P2
2023/03/21 00:02:09;;;;;;;8.23;4.72;;;;;;;;;;5055224;28;20561;-79
2023/03/21 00:04:36;;;;;;;6.53;3.85;;;;;;;;;;5055239;28;20496;-79
2023/03/21 00:07:03;;;;;;;7.60;4.45;;;;;;;;;;5054293;28;20558;-79
2023/03/21 00:09:29;;;;;;;7.88;4.53;;;;;;;;;;5055415;28;20091;-78
2023/03/21 00:12:00;;;;;;;8.60;4.68;;;;;;;;;;5034113;28;20046;-79
2023/03/21 00:14:29;;;;;;;8.90;5.35;;;;;;;;;;5033697;28;20049;-78
2023/03/21 00:16:58;;;;;;;7.82;4.70;;;;;;;;;;5031895;28;20535;-79
2023/03/21 00:19:27;;;;;;;9.13;5.60;;;;;;;;;;5040976;28;20419;-77
2023/03/21 00:21:54;;;;;;;7.97;5.28;;;;;;;;;;5055904;28;20191;-79
2023/03/21 00:24:22;;;;;;;9.48;6.20;;;;;;;;;;5056075;28;20124;-78
2023/03/21 00:26:49;;;;;;;12.07;7.13;;;;;;;;;;5058621;28;20547;-79
2023/03/21 00:29:16;;;;;;;14.63;8.48;;;;;;;;;;5058841;28;20075;-79
2023/03/21 00:31:44;;;;;;;14.05;8.73;;;;;;;;;;5056842;28;20048;-77
2023/03/21 00:34:11;;;;;;;14.10;8.60;;;;;;;;;;5054618;28;20049;-77
2023/03/21 00:36:37;;;;;;;16.15;8.30;;;;;;;;;;5054614;28;20040;-77
2023/03/21 00:39:05;;;;;;;12.18;7.03;;;;;;;;;;5055633;28;20126;-76
2023/03/21 00:41:32;;;;;;;11.07;6.70;;;;;;;;;;5054623;28;20052;-77
2023/03/21 00:43:59;;;;;;;10.68;6.68;;;;;;;;;;5054579;28;20475;-79
2023/03/21 00:46:26;;;;;;;10.63;6.55;;;;;;;;;;5056293;28;20561;-77
2023/03/21 00:48:54;;;;;;;11.10;6.82;;;;;;;;;;5055349;28;20784;-78
2023/03/21 00:51:25;;;;;;;10.50;6.90;;;;;;;;;;5055749;28;20064;-78
2023/03/21 00:53:53;;;;;;;11.73;7.22;;;;;;;;;;5055704;28;20049;-78
2023/03/21 00:56:19;;;;;;;11.98;7.78;;;;;;;;;;5059501;28;20049;-77
2023/03/21 00:58:46;;;;;;;10.25;7.45;;;;;;;;;;5072062;28;20049;-77
2023/03/21 01:01:13;;;;;;;13.90;7.43;;;;;;;;;;5064897;28;20539;-78
2023/03/21 01:03:49;;;;;;;11.05;7.35;;;;;;;;;;5056474;28;20049;-78
2023/03/21 01:06:19;;;;;;;12.85;7.05;;;;;;;;;;5054046;28;20051;-78
2023/03/21 01:08:48;;;;;;;11.60;7.43;;;;;;;;;;5055739;28;20071;-77
2023/03/21 01:11:16;;;;;;;14.30;7.60;;;;;;;;;;5057565;28;20071;-80
2023/03/21 01:13:43;;;;;;;14.52;8.18;;;;;;;;;;5056764;28;20048;-81
2023/03/21 01:16:10;;;;;;;11.75;7.60;;;;;;;;;;5056225;28;20496;-80
2023/03/21 01:18:39;;;;;;;11.52;7.18;;;;;;;;;;5056174;28;20045;-78
2023/03/21 01:21:16;;;;;;;11.57;7.43;;;;;;;;;;5055779;28;20052;-76
2023/03/21 01:23:45;;;;;;;11.13;7.28;;;;;;;;;;5055944;28;20124;-79
2023/03/21 01:26:13;;;;;;;15.23;7.35;;;;;;;;;;5056612;28;20049;-77
2023/03/21 01:28:42;;;;;;;11.57;7.65;;;;;;;;;;5055703;28;20076;-79
2023/03/21 01:31:11;;;;;;;12.13;7.72;;;;;;;;;;5057734;28;20077;-79
2023/03/21 01:33:37;;;;;;;11.35;6.70;;;;;;;;;;5057341;28;20076;-80
2023/03/21 01:36:05;;;;;;;13.20;8.57;;;;;;;;;;5056974;28;20068;-80
2023/03/21 01:38:32;;;;;;;10.20;6.63;;;;;;;;;;5057087;28;20045;-78
2023/03/21 01:41:02;;;;;;;10.98;6.90;;;;;;;;;;5057512;28;20474;-77
2023/03/21 01:43:30;;;;;;;10.63;6.33;;;;;;;;;;5057383;28;20235;-79
2023/03/21 01:46:38;;;;;;;10.93;6.70;;;;;;;;;;5058238;28;20322;-77
2023/03/21 01:49:10;;;;;;;12.13;6.60;;;;;;;;;;5064367;28;20048;-77
2023/03/21 01:51:40;;;;;;;9.50;5.88;;;;;;;;;;5056534;28;20056;-79
2023/03/21 01:54:13;;;;;;;11.02;6.40;;;;;;;;;;5056866;28;20466;-78
2023/03/21 01:56:45;;;;;;;9.50;5.68;;;;;;;;;;5047545;28;20045;-78
2023/03/21 01:59:16;;;;;;;8.07;5.38;;;;;;;;;;5051655;28;20171;-78
2023/03/21 02:01:44;;;;;;;9.82;5.15;;;;;;;;;;5052447;28;20056;-78
2023/03/21 02:04:12;;;;;;;10.23;5.95;;;;;;;;;;5052773;28;20465;-77
2023/03/21 02:06:44;;;;;;;9.20;6.03;;;;;;;;;;5037186;28;20053;-77
2023/03/21 02:09:14;;;;;;;9.73;6.15;;;;;;;;;;5051657;28;20083;-77
2023/03/21 02:11:45;;;;;;;11.02;7.05;;;;;;;;;;5052785;28;20132;-77
2023/03/21 02:14:13;;;;;;;;;;;;;;;;;;5036551;28;20420;-78
2023/03/21 02:16:52;;;;;;;13.02;7.07;;;;;;;;;;5034188;28;19921;-79
2023/03/21 02:19:52;;;;;;;8.88;5.82;;;;;;;;;;5036146;28;20549;-80
2023/03/21 02:23:00;;;;;;;9.52;5.25;;;;;;;;;;5036520;28;20092;-79
2023/03/21 02:25:56;;;;;;;9.05;5.35;;;;;;;;;;5032572;28;20075;-79
2023/03/21 02:28:26;;;;;;;8.13;4.97;;;;;;;;;;5056111;28;20483;-78
2023/03/21 02:31:27;;;;;;;7.78;4.82;;;;;;;;;;5056074;28;20412;-79
2023/03/21 02:34:26;;;;;;;10.07;5.22;;;;;;;;;;5054341;28;20111;-79
2023/03/21 02:37:05;;;;;;;6.95;4.38;;;;;;;;;;5033194;28;20049;-78
2023/03/21 02:39:43;;;;;;;7.80;4.47;;;;;;;;;;5034453;28;20168;-77
2023/03/21 02:42:16;;;;;;;7.25;4.40;;;;;;;;;;5032201;28;20053;-77
2023/03/21 02:44:47;;;;;;;7.95;4.68;;;;;;;;;;5052071;28;20045;-78
2023/03/21 02:47:19;;;;;;;6.85;4.65;;;;;;;;;;5052825;28;20099;-77
2023/03/21 02:49:50;;;;;;;7.88;4.43;;;;;;;;;;5052315;28;20076;-79
2023/03/21 02:52:23;;;;;;;7.72;4.57;;;;;;;;;;5059741;28;20049;-79
2023/03/21 02:54:51;;;;;;;6.90;4.40;;;;;;;;;;5059054;28;20045;-80
2023/03/21 02:57:19;;;;;;;6.43;4.15;;;;;;;;;;5063102;28;20045;-80
2023/03/21 02:59:46;;;;;;;7.72;4.72;;;;;;;;;;5061811;28;20045;-79
2023/03/21 03:02:14;;;;;;;6.85;4.43;;;;;;;;;;5043135;28;20077;-79
2023/03/21 03:04:41;;;;;;;6.50;4.35;;;;;;;;;;5055751;28;20056;-77
2023/03/21 03:07:17;;;;;;;10.52;5.63;;;;;;;;;;5050773;28;20064;-79
2023/03/21 03:10:11;;;;;;;7.38;4.65;;;;;;;;;;5047149;28;20546;-79
2023/03/21 03:12:45;;;;;;;8.10;4.90;;;;;;;;;;5037818;28;20046;-80
2023/03/21 03:15:22;;;;;;;7.03;4.70;;;;;;;;;;5045931;28;20101;-79
2023/03/21 03:17:54;;;;;;;7.93;5.18;;;;;;;;;;5038079;28;20049;-80
2023/03/21 03:20:27;;;;;;;8.20;4.72;;;;;;;;;;5036289;28;20041;-79
2023/03/21 03:23:04;;;;;;;8.10;5.22;;;;;;;;;;5035962;28;20128;-80
2023/03/21 03:25:39;;;;;;;8.40;4.88;;;;;;;;;;5054943;28;20072;-79
2023/03/21 03:28:07;;;;;;;7.68;4.35;;;;;;;;;;5041528;28;20050;-80
2023/03/21 03:30:36;;;;;;;7.28;5.13;;;;;;;;;;5034366;28;20073;-79
2023/03/21 03:33:07;;;;;;;7.93;4.97;;;;;;;;;;5037228;28;20568;-78
2023/03/21 03:35:34;;;;;;;8.20;5.15;;;;;;;;;;5035827;28;20106;-78
2023/03/21 03:38:04;;;;;;;8.93;5.43;;;;;;;;;;5051302;28;20099;-78
2023/03/21 03:40:39;;;;;;;6.93;5.10;;;;;;;;;;5051916;28;20095;-78
2023/03/21 03:43:10;;;;;;;7.18;5.00;;;;;;;;;;5053160;28;20049;-79
2023/03/21 03:45:40;;;;;;;;;;;;;;;;;;5052118;28;20049;-78
2023/03/21 03:48:16;;;;;;;9.48;4.95;;;;;;;;;;5051583;28;20541;-77
2023/03/21 03:50:47;;;;;;;8.30;5.15;;;;;;;;;;5051994;28;20045;-78
2023/03/21 03:53:20;;;;;;;9.43;5.53;;;;;;;;;;5051747;28;20132;-78
2023/03/21 03:55:49;;;;;;;8.98;4.82;;;;;;;;;;5056354;28;20049;-78
2023/03/21 03:58:19;;;;;;;7.68;5.18;;;;;;;;;;5056111;28;20049;-78
2023/03/21 04:00:45;;;;;;;8.82;5.43;;;;;;;;;;5056331;28;20049;-76
2023/03/21 04:03:13;;;;;;;7.45;5.05;;;;;;;;;;5056805;28;20456;-78
2023/03/21 04:05:40;;;;;;;8.55;5.00;;;;;;;;;;5058963;28;20099;-79
2023/03/21 04:08:07;;;;;;;9.05;4.90;;;;;;;;;;5058817;28;20049;-79
2023/03/21 04:10:34;;;;;;;8.50;4.90;;;;;;;;;;5059281;28;20570;-79
2023/03/21 04:13:02;;;;;;;8.32;5.25;;;;;;;;;;5059992;28;20076;-80
2023/03/21 04:15:29;;;;;;;8.63;5.60;;;;;;;;;;5060543;28;20079;-79
2023/03/21 04:17:56;;;;;;;8.93;5.10;;;;;;;;;;5058864;28;20539;-80
2023/03/21 04:20:23;;;;;;;6.80;4.78;;;;;;;;;;5060465;28;20504;-79
2023/03/21 04:22:51;;;;;;;8.10;5.65;;;;;;;;;;5060906;28;20505;-79
2023/03/21 04:25:17;;;;;;;7.53;5.10;;;;;;;;;;5060037;28;20045;-78
2023/03/21 04:27:45;;;;;;;8.48;4.95;;;;;;;;;;5060346;28;20801;-79
2023/03/21 04:30:15;;;;;;;8.23;5.20;;;;;;;;;;5059376;28;20045;-79
2023/03/21 04:32:41;;;;;;;10.32;5.22;;;;;;;;;;5059787;28;20453;-78
2023/03/21 04:35:10;;;;;;;11.38;5.07;;;;;;;;;;5060240;28;20132;-78
2023/03/21 04:37:38;;;;;;;9.05;5.18;;;;;;;;;;5059663;28;20488;-80
2023/03/21 04:40:07;;;;;;;7.53;4.97;;;;;;;;;;5059191;28;20045;-78
2023/03/21 04:42:34;;;;;;;8.05;5.53;;;;;;;;;;5064926;28;20079;-77
2023/03/21 04:45:02;;;;;;;7.90;4.55;;;;;;;;;;5065505;28;20104;-80
2023/03/21 04:47:30;;;;;;;7.03;4.70;;;;;;;;;;5059523;28;20049;-80
2023/03/21 04:49:57;;;;;;;8.93;5.38;;;;;;;;;;5059883;28;20128;-80
2023/03/21 04:52:23;;;;;;;8.60;5.20;;;;;;;;;;5059161;28;20064;-80
2023/03/21 04:54:50;;;;;;;6.95;4.78;;;;;;;;;;5058344;28;20072;-78
2023/03/21 04:57:17;;;;;;;9.23;5.60;;;;;;;;;;5055493;28;20084;-79
2023/03/21 04:59:43;;;;;;;7.38;5.07;;;;;;;;;;5054960;28;20083;-79
2023/03/21 05:02:10;;;;;;;8.50;5.45;;;;;;;;;;5055095;28;20076;-79
2023/03/21 05:04:41;;;;;;;9.20;5.50;;;;;;;;;;5054814;28;20081;-78
2023/03/21 05:07:08;;;;;;;8.00;5.15;;;;;;;;;;5042644;28;20132;-77
2023/03/21 05:09:35;;;;;;;8.02;5.32;;;;;;;;;;5040944;28;20045;-78
2023/03/21 05:12:01;;;;;;;8.02;5.25;;;;;;;;;;5058369;28;20136;-77
2023/03/21 05:14:28;;;;;;;7.93;4.93;;;;;;;;;;5057988;28;20464;-79
2023/03/21 05:16:56;;;;;;;8.80;5.80;;;;;;;;;;5057229;28;20119;-79
2023/03/21 05:19:33;;;;;;;10.23;7.18;;;;;;;;;;5057828;28;20049;-79
2023/03/21 05:22:03;;;;;;;9.68;6.63;;;;;;;;;;5037930;28;20046;-79
2023/03/21 05:24:31;;;;;;;13.77;8.20;;;;;;;;;;5039890;28;20053;-79
2023/03/21 05:27:01;;;;;;;8.25;5.43;;;;;;;;;;5037696;28;20060;-79
2023/03/21 05:29:29;;;;;;;7.85;5.47;;;;;;;;;;5038583;28;20053;-80
2023/03/21 05:31:55;;;;;;;8.55;5.10;;;;;;;;;;5055412;28;20075;-80
2023/03/21 05:34:23;;;;;;;10.75;5.78;;;;;;;;;;5057790;28;20083;-80
2023/03/21 05:36:49;;;;;;;8.73;6.07;;;;;;;;;;5057648;28;20068;-79
2023/03/21 05:39:18;;;;;;;9.40;5.85;;;;;;;;;;5058356;28;20514;-79
2023/03/21 05:41:44;;;;;;;10.43;6.20;;;;;;;;;;5060625;28;20041;-79
2023/03/21 05:44:11;;;;;;;8.55;6.22;;;;;;;;;;5059970;28;20095;-79
2023/03/21 05:46:38;;;;;;;9.50;7.18;;;;;;;;;;5060193;28;20558;-77
2023/03/21 05:49:05;;;;;;;12.10;5.82;;;;;;;;;;5060209;28;20049;-79
2023/03/21 05:51:31;;;;;;;9.25;5.93;;;;;;;;;;5058778;28;20045;-80
2023/03/21 05:53:58;;;;;;;10.65;5.55;;;;;;;;;;5059633;28;20075;-79
2023/03/21 05:56:26;;;;;;;9.05;5.50;;;;;;;;;;5059356;28;20128;-80
2023/03/21 05:58:53;;;;;;;8.05;5.65;;;;;;;;;;5074404;22;20385;-76
2023/03/21 06:01:19;;;;;;;9.68;5.88;;;;;;;;;;5048394;28;20048;-75
2023/03/21 06:03:46;;;;;;;8.82;5.40;;;;;;;;;;5049791;28;20128;-76
2023/03/21 06:06:13;;;;;;;10.63;6.13;;;;;;;;;;5049257;28;20049;-74
2023/03/21 06:08:39;;;;;;;9.52;5.63;;;;;;;;;;5049403;28;20048;-77
2023/03/21 06:11:16;;;;;;;9.68;5.85;;;;;;;;;;5049482;28;20139;-77
2023/03/21 06:13:44;;;;;;;8.23;5.45;;;;;;;;;;5048929;28;20099;-77
2023/03/21 06:16:10;;;;;;;10.73;5.78;;;;;;;;;;5048442;28;20053;-77
2023/03/21 06:18:37;;;;;;;8.85;5.80;;;;;;;;;;5048726;28;20526;-76
2023/03/21 06:21:04;;;;;;;11.35;6.25;;;;;;;;;;5049565;28;20127;-74
2023/03/21 06:23:31;;;;;;;10.85;6.32;;;;;;;;;;5049561;28;20260;-76
2023/03/21 06:25:57;;;;;;;8.50;6.28;;;;;;;;;;5049324;28;20044;-77
2023/03/21 06:28:24;;;;;;;8.82;6.18;;;;;;;;;;5049784;28;20059;-77
2023/03/21 06:30:52;;;;;;;10.02;5.95;;;;;;;;;;5050317;28;20057;-77
2023/03/21 06:33:19;;;;;;;9.60;6.15;;;;;;;;;;5049131;28;20064;-76
2023/03/21 06:35:51;;;;;;;12.32;6.43;;;;;;;;;;5046671;28;20045;-76
2023/03/21 06:38:17;;;;;;;9.90;6.60;;;;;;;;;;5048483;28;20132;-77
2023/03/21 06:40:45;;;;;;;10.82;6.93;;;;;;;;;;5049036;28;20072;-76
2023/03/21 06:43:12;;;;;;;11.23;7.43;;;;;;;;;;5048688;28;20080;-77
2023/03/21 06:45:39;;;;;;;11.05;7.00;;;;;;;;;;5047218;28;20051;-77
2023/03/21 06:48:07;;;;;;;10.10;6.45;;;;;;;;;;5043320;28;20072;-77
2023/03/21 06:50:34;;;;;;;7.70;5.30;;;;;;;;;;5032822;28;20045;-77
2023/03/21 06:53:01;;;;;;;11.88;6.95;;;;;;;;;;5033184;28;20578;-77
2023/03/21 06:55:27;;;;;;;10.77;6.05;;;;;;;;;;5032483;28;20471;-77
2023/03/21 06:57:56;;;;;;;10.27;5.78;;;;;;;;;;5034573;28;20048;-77
2023/03/21 07:00:23;;;;;;;9.45;5.80;;;;;;;;;;5044423;28;20041;-77
2023/03/21 07:02:50;;;;;;;10.73;5.95;;;;;;;;;;5053288;28;20053;-77
2023/03/21 07:05:18;;;;;;;8.85;5.43;;;;;;;;;;5050880;28;20147;-77
2023/03/21 07:08:02;;;;;;;10.57;6.32;;;;;;;;;;5044284;28;20131;-75
2023/03/21 07:10:28;;;;;;;9.07;6.53;;;;;;;;;;5051613;28;20132;-77
2023/03/21 07:12:55;;;;;;;9.15;5.95;;;;;;;;;;5054299;28;20049;-76
2023/03/21 07:15:21;;;;;;;13.38;6.63;;;;;;;;;;5054223;28;20048;-77
2023/03/21 07:17:48;;;;;;;8.98;5.97;;;;;;;;;;5054269;28;20047;-77
2023/03/21 07:20:15;;;;;;;9.35;6.25;;;;;;;;;;5053935;28;20045;-77
2023/03/21 07:22:43;;;;;;;9.38;5.60;;;;;;;;;;5054641;28;20411;-75
2023/03/21 07:25:10;;;;;;;8.77;6.32;;;;;;;;;;5054526;28;20056;-77
2023/03/21 07:27:37;;;;;;;9.60;6.28;;;;;;;;;;5060517;28;20239;-77
2023/03/21 07:30:04;;;;;;;9.40;6.10;;;;;;;;;;5064503;28;20048;-76
2023/03/21 07:32:36;;;;;;;9.18;6.00;;;;;;;;;;5061197;28;20415;-77
2023/03/21 07:35:03;;;;;;;8.00;6.18;;;;;;;;;;5059361;28;20140;-77
2023/03/21 07:37:30;;;;;;;9.82;6.00;;;;;;;;;;5057555;28;20100;-77
2023/03/21 07:39:58;;;;;;;9.85;5.80;;;;;;;;;;5057686;28;20049;-77
2023/03/21 07:42:25;;;;;;;11.65;5.82;;;;;;;;;;5042744;28;20056;-77
2023/03/21 07:44:53;;;;;;;9.20;5.95;;;;;;;;;;5049912;28;20057;-76
2023/03/21 07:47:20;;;;;;;8.10;5.70;;;;;;;;;;5046029;28;20065;-77
2023/03/21 07:49:47;;;;;;;9.50;6.47;;;;;;;;;;5047585;28;20041;-77
2023/03/21 07:52:13;;;;;;;9.50;6.32;;;;;;;;;;5056777;28;20053;-76
2023/03/21 07:54:40;;;;;;;10.73;6.88;;;;;;;;;;5057320;28;20131;-77
2023/03/21 07:57:08;;;;;;;10.95;7.63;;;;;;;;;;5056583;28;20475;-75
2023/03/21 07:59:34;;;;;;;13.45;7.53;;;;;;;;;;5051614;28;20124;-77
2023/03/21 08:02:01;;;;;;;11.18;6.90;;;;;;;;;;5059413;28;20045;-76
2023/03/21 08:04:28;;;;;;;10.95;7.47;;;;;;;;;;5046092;28;20049;-76
2023/03/21 08:06:56;;;;;;;12.05;6.90;;;;;;;;;;5042745;28;20054;-76
2023/03/21 08:09:22;;;;;;;13.75;7.63;;;;;;;;;;5049290;28;20047;-75
2023/03/21 08:11:49;;;;;;;12.90;7.95;;;;;;;;;;5037891;28;20073;-82
2023/03/21 08:14:17;;;;;;;12.07;6.72;;;;;;;;;;5036811;28;20125;-78
2023/03/21 08:16:44;;;;;;;10.93;6.47;;;;;;;;;;5050894;28;20041;-75
2023/03/21 08:19:10;;;;;;;12.75;6.80;;;;;;;;;;5053448;28;20041;-75
2023/03/21 08:21:38;;;;;;;11.55;7.65;;;;;;;;;;5055016;28;20055;-78
2023/03/21 08:24:05;;;;;;;11.27;7.32;;;;;;;;;;5055535;28;20049;-76
2023/03/21 08:26:33;;;;;;;12.10;7.13;;;;;;;;;;5054462;28;20118;-74
2023/03/21 08:29:00;;;;;;;11.77;8.32;;;;;;;;;;5048918;28;20064;-74
2023/03/21 08:31:28;;;;;;;13.50;9.07;;;;;;;;;;5053230;28;20067;-75
2023/03/21 08:33:55;;;;;;;13.05;9.07;;;;;;;;;;5054357;28;20049;-75
2023/03/21 08:36:21;;;;;;;15.70;9.48;;;;;;;;;;5036161;28;20133;-75
2023/03/21 08:38:52;;;;;;;12.13;7.97;;;;;;;;;;5036028;28;20056;-75
2023/03/21 08:41:20;;;;;;;12.57;8.15;;;;;;;;;;5036496;28;20084;-74
2023/03/21 08:43:47;;;;;;;11.10;6.93;;;;;;;;;;5052222;28;20127;-75
2023/03/21 08:46:14;;;;;;;12.82;7.28;;;;;;;;;;5052156;28;20045;-75
2023/03/21 08:48:42;;;;;;;11.20;7.00;;;;;;;;;;5046659;28;20054;-75
2023/03/21 08:51:09;;;;;;;12.52;7.20;;;;;;;;;;5048053;28;20478;-75
2023/03/21 08:53:35;;;;;;;13.43;7.15;;;;;;;;;;5041766;28;20049;-74
2023/03/21 08:56:02;;;;;;;9.90;6.50;;;;;;;;;;5035328;28;20038;-74
2023/03/21 08:58:29;;;;;;;14.52;7.50;;;;;;;;;;5033029;28;20412;-74
2023/03/21 09:00:55;;;;;;;9.20;6.50;;;;;;;;;;5033520;28;20077;-75
2023/03/21 09:03:22;;;;;;;13.63;6.93;;;;;;;;;;5042331;28;20500;-74
2023/03/21 09:05:53;;;;;;;11.98;6.60;;;;;;;;;;5052223;28;20049;-74
2023/03/21 09:08:22;;;;;;;9.98;6.50;;;;;;;;;;5035396;28;20045;-75
2023/03/21 09:10:48;;;;;;;10.77;6.13;;;;;;;;;;5035431;28;20099;-75
2023/03/21 09:13:15;;;;;;;11.02;6.95;;;;;;;;;;5033688;28;20045;-75
2023/03/21 09:15:42;;;;;;;9.50;6.38;;;;;;;;;;5032116;28;20567;-75
2023/03/21 09:18:21;;;;;;;14.40;6.35;;;;;;;;;;5032362;28;20047;-75
2023/03/21 09:20:50;;;;;;;10.90;6.53;;;;;;;;;;5042414;28;20100;-75
2023/03/21 09:23:17;;;;;;;10.18;6.00;;;;;;;;;;5048929;28;20049;-75
2023/03/21 09:25:45;;;;;;;11.55;6.30;;;;;;;;;;5051398;28;20047;-75
2023/03/21 09:28:12;;;;;;;14.55;6.53;;;;;;;;;;5052009;28;20135;-75
2023/03/21 09:30:40;;;;;;;10.02;5.70;;;;;;;;;;5051657;28;20889;-75
2023/03/21 09:33:07;;;;;;;10.43;5.93;;;;;;;;;;5051990;28;20532;-76
2023/03/21 09:35:34;;;;;;;10.95;5.95;;;;;;;;;;5049992;28;20045;-76
2023/03/21 09:38:04;;;;;;;11.70;7.15;;;;;;;;;;5050467;28;20124;-76
2023/03/21 09:40:41;;;;;;;11.13;6.20;;;;;;;;;;5039957;28;20053;-76
2023/03/21 09:43:22;;;;;;;12.15;6.50;;;;;;;;;;5051281;28;20087;-76
2023/03/21 09:45:52;;;;;;;13.25;7.25;;;;;;;;;;5049873;28;20045;-76
2023/03/21 09:48:29;;;;;;;12.98;8.45;;;;;;;;;;5048480;28;20622;-76
2023/03/21 09:50:56;;;;;;;12.02;6.65;;;;;;;;;;5045177;28;20079;-76
2023/03/21 09:53:29;;;;;;;11.07;7.10;;;;;;;;;;5043079;28;20043;-76
2023/03/21 09:55:56;;;;;;;9.45;6.57;;;;;;;;;;5041571;28;20464;-76
2023/03/21 09:58:27;;;;;;;12.45;7.03;;;;;;;;;;5032983;28;20046;-75
2023/03/21 10:01:01;;;;;;;12.98;6.63;;;;;;;;;;5036516;28;20045;-76
2023/03/21 10:03:33;;;;;;;11.07;5.90;;;;;;;;;;5047341;28;20570;-76
2023/03/21 10:06:06;;;;;;;8.68;5.28;;;;;;;;;;5049150;28;20040;-76
2023/03/21 10:08:36;;;;;;;10.15;6.03;;;;;;;;;;5050737;28;20587;-76
2023/03/21 10:11:09;;;;;;;9.60;5.68;;;;;;;;;;5050650;28;20123;-76
2023/03/21 10:13:43;;;;;;;9.80;6.13;;;;;;;;;;5046162;28;20107;-76
2023/03/21 10:16:14;;;;;;;11.65;5.82;;;;;;;;;;5050382;28;20045;-75
2023/03/21 10:18:42;;;;;;;10.45;5.55;;;;;;;;;;5039316;28;20128;-75
2023/03/21 10:21:15;;;;;;;9.48;5.53;;;;;;;;;;5041659;28;20055;-76
2023/03/21 10:23:43;;;;;;;8.20;5.07;;;;;;;;;;5039662;28;20054;-76
2023/03/21 10:26:11;;;;;;;11.48;5.75;;;;;;;;;;5039686;28;20492;-75
2023/03/21 10:28:42;;;;;;;11.23;5.80;;;;;;;;;;5041431;28;20059;-76
2023/03/21 10:31:10;;;;;;;8.57;5.63;;;;;;;;;;5040839;28;20041;-76
2023/03/21 10:33:40;;;;;;;10.13;6.40;;;;;;;;;;5040862;28;20543;-77
2023/03/21 10:36:10;;;;;;;17.85;7.60;;;;;;;;;;5045501;28;20049;-76
2023/03/21 10:38:41;;;;;;;9.23;5.03;;;;;;;;;;5048478;28;20049;-81
2023/03/21 10:41:10;;;;;;;20.70;10.02;;;;;;;;;;5041495;28;20096;-76
2023/03/21 10:43:39;;;;;;;9.70;6.15;;;;;;;;;;5051401;28;20060;-77
2023/03/21 10:46:09;;;;;;;10.13;5.70;;;;;;;;;;5042554;28;20060;-76
2023/03/21 10:48:37;;;;;;;13.90;8.05;;;;;;;;;;5050119;28;20658;-76
2023/03/21 10:51:07;;;;;;;10.48;5.10;;;;;;;;;;5052232;28;20033;-77
2023/03/21 10:53:39;;;;;;;9.97;4.90;;;;;;;;;;5050802;28;20056;-76
2023/03/21 10:56:10;;;;;;;9.15;4.38;;;;;;;;;;5042694;28;20756;-75
2023/03/21 10:58:43;;;;;;;7.28;4.05;;;;;;;;;;5054960;28;20104;-77
2023/03/21 11:01:14;;;;;;;11.05;6.05;;;;;;;;;;5052891;28;20048;-74
2023/03/21 11:03:45;;;;;;;7.32;4.28;;;;;;;;;;5045977;28;20052;-75
2023/03/21 11:06:16;;;;;;;8.35;4.65;;;;;;;;;;5046631;28;20053;-76
2023/03/21 11:08:47;;;;;;;7.70;4.97;;;;;;;;;;5047013;28;20060;-76
2023/03/21 11:11:21;;;;;;;;;;;;;;;;;;5047476;28;20037;-75
2023/03/21 11:13:57;;;;;;;9.48;5.32;;;;;;;;;;5047039;28;19966;-74
2023/03/21 11:16:30;;;;;;;8.45;4.95;;;;;;;;;;5046976;28;20154;-75
2023/03/21 11:19:01;;;;;;;8.35;4.65;;;;;;;;;;5046773;28;20717;-75
2023/03/21 11:21:28;;;;;;;7.88;4.60;;;;;;;;;;5047454;28;20045;-77
2023/03/21 11:23:56;;;;;;;9.05;4.55;;;;;;;;;;5048893;28;20045;-76
2023/03/21 11:26:31;;;;;;;7.85;4.32;;;;;;;;;;5049969;28;20474;-76
2023/03/21 11:28:58;;;;;;;7.60;4.68;;;;;;;;;;5050424;28;20052;-76
2023/03/21 11:31:37;;;;;;;11.02;6.10;;;;;;;;;;5043403;28;20423;-77
2023/03/21 11:34:06;;;;;;;6.68;4.90;;;;;;;;;;5030351;28;20046;-76
2023/03/21 11:36:35;;;;;;;7.00;4.20;;;;;;;;;;5044837;28;20415;-75
2023/03/21 11:39:14;;;;;;;6.70;3.83;;;;;;;;;;5050174;28;20043;-76
2023/03/21 11:41:42;;;;;;;7.38;4.50;;;;;;;;;;5051360;28;20045;-80
2023/03/21 11:44:26;;;;;;;7.25;4.35;;;;;;;;;;5052101;28;20053;-82
2023/03/21 11:46:53;;;;;;;7.50;3.90;;;;;;;;;;5046970;28;20414;-78
2023/03/21 11:49:20;;;;;;;6.60;4.18;;;;;;;;;;5047947;28;20041;-77
2023/03/21 11:51:53;;;;;;;5.90;4.30;;;;;;;;;;5048087;28;20071;-78
2023/03/21 11:54:28;;;;;;;6.95;4.50;;;;;;;;;;5041450;28;20041;-76
2023/03/21 11:57:01;;;;;;;8.57;3.97;;;;;;;;;;5039924;28;20063;-77
2023/03/21 11:59:41;;;;;;;7.40;3.42;;;;;;;;;;5044979;28;20048;-78
2023/03/21 12:02:26;;;;;;;6.93;4.03;;;;;;;;;;5045663;28;20045;-77
2023/03/21 12:04:55;;;;;;;7.20;3.92;;;;;;;;;;5049784;28;20053;-78
2023/03/21 12:07:41;;;;;;;7.68;3.95;;;;;;;;;;5049846;28;20041;-79
2023/03/21 12:10:31;;;;;;;7.00;3.53;;;;;;;;;;5040722;28;20052;-76
2023/03/21 12:13:08;;;;;;;9.48;3.72;;;;;;;;;;5039140;28;20097;-76
2023/03/21 12:15:40;;;;;;;6.95;3.20;;;;;;;;;;5040844;28;20045;-77
2023/03/21 12:18:19;;;;;;;6.00;3.47;;;;;;;;;;5038669;28;20059;-77
2023/03/21 12:20:53;;;;;;;5.57;3.47;;;;;;;;;;5056439;22;20137;-80
2023/03/21 12:23:39;;;;;;;5.65;3.25;;;;;;;;;;5040675;28;20091;-81
2023/03/21 12:26:17;;;;;;;6.57;3.72;;;;;;;;;;5035514;28;20052;-81
2023/03/21 12:28:57;;;;;;;5.88;3.25;;;;;;;;;;5037005;28;20049;-81
2023/03/21 12:31:28;;;;;;;6.15;3.65;;;;;;;;;;5017499;28;20049;-83
2023/03/21 12:34:10;;;;;;;8.38;3.75;;;;;;;;;;5017502;28;20046;-81
2023/03/21 12:36:49;;;;;;;5.15;3.00;;;;;;;;;;5017709;28;20073;-82
2023/03/21 12:39:26;;;;;;;5.90;3.22;;;;;;;;;;5015923;28;20050;-82
2023/03/21 12:42:05;;;;;;;7.32;3.83;;;;;;;;;;5021890;28;20088;-81
2023/03/21 12:44:37;;;;;;;5.85;3.38;;;;;;;;;;5009199;28;20501;-81
2023/03/21 12:47:09;;;;;;;6.00;2.53;;;;;;;;;;5019440;28;20109;-81
2023/03/21 12:49:41;;;;;;;5.82;3.20;;;;;;;;;;5018602;28;20501;-81
2023/03/21 12:52:11;;;;;;;6.00;2.88;;;;;;;;;;5017404;28;20092;-81
2023/03/21 12:54:40;;;;;;;6.13;3.45;;;;;;;;;;5022144;28;20049;-82
2023/03/21 12:57:12;;;;;;;5.88;3.50;;;;;;;;;;5019484;28;20046;-78
2023/03/21 12:59:46;;;;;;;6.75;3.10;;;;;;;;;;5020553;28;20046;-82
2023/03/21 13:02:25;;;;;;;5.13;2.83;;;;;;;;;;5015694;28;20050;-82
2023/03/21 13:05:05;;;;;;;4.68;2.75;;;;;;;;;;5018229;28;20046;-81
2023/03/21 13:07:35;;;;;;;7.05;3.38;;;;;;;;;;5011018;28;20061;-81
2023/03/21 13:10:04;;;;;;;;;;;;;;;;;;5008506;28;20106;-80
2023/03/21 13:13:01;;;;;;;5.40;2.95;;;;;;;;;;5028683;28;19921;-79
2023/03/21 13:15:46;;;;;;;5.28;3.20;;;;;;;;;;5024259;28;20155;-81
2023/03/21 13:18:19;;;;;;;5.63;3.60;;;;;;;;;;5018616;28;20048;-83
2023/03/21 13:20:48;;;;;;;6.32;3.25;;;;;;;;;;5016517;28;20050;-82
2023/03/21 13:23:17;;;;;;;5.47;3.00;;;;;;;;;;5017476;28;20039;-80
2023/03/21 13:25:47;;;;;;;6.65;3.72;;;;;;;;;;5021240;28;20049;-80
2023/03/21 13:28:19;;;;;;;6.53;3.72;;;;;;;;;;5020559;28;20579;-79
2023/03/21 13:30:48;;;;;;;6.53;4.45;;;;;;;;;;5019682;28;20053;-81
2023/03/21 13:33:17;;;;;;;5.75;3.63;;;;;;;;;;5019926;28;20057;-80
2023/03/21 13:35:45;;;;;;;6.55;3.58;;;;;;;;;;5018364;28;20050;-80
2023/03/21 13:38:18;;;;;;;8.00;3.97;;;;;;;;;;5023069;28;20062;-81
2023/03/21 13:40:48;;;;;;;7.60;3.90;;;;;;;;;;5022321;28;20050;-80
2023/03/21 13:43:52;;;;;;;5.95;3.95;;;;;;;;;;5015586;28;20061;-80
2023/03/21 13:46:37;;;;;;;6.97;3.92;;;;;;;;;;4943423;29;20066;-80
2023/03/21 13:49:15;;;;;;;9.13;5.80;;;;;;;;;;4941338;29;20507;-81
2023/03/21 13:51:44;;;;;;;7.53;4.35;;;;;;;;;;4995152;28;20073;-81
2023/03/21 13:54:20;;;;;;;6.13;4.03;;;;;;;;;;5021272;28;20046;-79
2023/03/21 13:56:53;;;;;;;7.40;4.90;;;;;;;;;;5020694;28;20398;-79
2023/03/21 13:59:37;;;;;;;7.07;4.13;;;;;;;;;;5019850;28;20080;-79
2023/03/21 14:02:21;;;;;;;7.15;4.00;;;;;;;;;;5018117;28;20057;-79
2023/03/21 14:04:55;;;;;;;6.32;4.18;;;;;;;;;;5020551;28;20073;-79
2023/03/21 14:07:27;;;;;;;7.53;4.57;;;;;;;;;;5020299;28;20060;-79
2023/03/21 14:09:57;;;;;;;6.35;2.90;;;;;;;;;;5019795;28;20050;-79
2023/03/21 14:12:24;;;;;;;;;;;;;;;;;;5019092;28;20185;-80
2023/03/21 14:14:54;;;;;;;7.50;3.85;;;;;;;;;;5015800;28;20350;-76
2023/03/21 14:17:26;;;;;;;7.30;3.50;;;;;;;;;;5012209;28;20074;-80
2023/03/21 14:19:54;;;;;;;6.65;3.60;;;;;;;;;;5015192;28;20046;-81
2023/03/21 14:22:23;;;;;;;5.22;2.90;;;;;;;;;;5018081;28;20141;-82
2023/03/21 14:24:55;;;;;;;5.00;2.78;;;;;;;;;;5017939;28;20708;-81
2023/03/21 14:27:22;;;;;;;5.93;2.40;;;;;;;;;;5016129;28;20046;-81
2023/03/21 14:29:50;;;;;;;5.88;3.38;;;;;;;;;;5017385;28;20049;-80
2023/03/21 14:32:21;;;;;;;6.35;3.33;;;;;;;;;;5018548;28;20386;-80
2023/03/21 14:34:49;;;;;;;7.35;3.83;;;;;;;;;;5018689;28;20042;-80
2023/03/21 14:37:27;;;;;;;5.88;3.47;;;;;;;;;;5018013;28;20054;-80
2023/03/21 14:40:00;;;;;;;7.68;4.32;;;;;;;;;;5021534;28;20100;-80
2023/03/21 14:42:33;;;;;;;6.57;3.90;;;;;;;;;;5026213;28;20058;-81
2023/03/21 14:45:02;;;;;;;5.70;3.53;;;;;;;;;;5031044;28;20048;-80
2023/03/21 14:47:30;;;;;;;8.00;3.80;;;;;;;;;;5025889;28;20049;-81
2023/03/21 14:50:00;;;;;;;5.30;3.20;;;;;;;;;;5018373;28;20046;-82
2023/03/21 14:52:31;;;;;;;7.78;3.30;;;;;;;;;;5019520;28;20050;-80
2023/03/21 14:55:02;;;;;;;5.70;3.42;;;;;;;;;;5015110;28;20053;-81
2023/03/21 14:57:32;;;;;;;6.53;3.55;;;;;;;;;;5018197;28;20057;-82
2023/03/21 15:00:05;;;;;;;5.75;3.50;;;;;;;;;;5023796;28;20050;-80
2023/03/21 15:02:35;;;;;;;7.18;3.70;;;;;;;;;;5019119;28;20046;-79